createdAt,value
2019-02-12T00:00:10.918Z,1.90
2019-02-12T00:02:39.942Z,1.50
2019-02-12T00:05:08.854Z,2.23
2019-02-12T00:07:37.773Z,2.20
2019-02-12T00:10:06.787Z,2.07
2019-02-12T00:12:35.699Z,2.00
2019-02-12T00:15:05.796Z,1.90
2019-02-12T00:17:34.726Z,2.00
2019-02-12T00:20:04.219Z,2.20
2019-02-12T00:22:33.131Z,2.07
2019-02-12T00:25:02.078Z,1.80
2019-02-12T00:27:30.995Z,1.80
2019-02-12T00:29:59.901Z,2.17
2019-02-12T00:32:28.803Z,2.93
2019-02-12T00:34:57.767Z,1.60
2019-02-12T00:37:27.010Z,1.83
2019-02-12T00:39:56.054Z,1.77
2019-02-12T00:42:24.958Z,1.80
2019-02-12T00:44:53.873Z,2.03
2019-02-12T00:47:22.831Z,2.07
2019-02-12T00:49:51.739Z,1.90
2019-02-12T00:52:20.654Z,2.20
2019-02-12T00:54:49.596Z,3.37
2019-02-12T00:57:18.834Z,2.57
2019-02-12T00:59:47.834Z,1.87
2019-02-12T01:02:16.794Z,1.73
2019-02-12T01:04:46.043Z,1.67
2019-02-12T01:07:15.042Z,1.73
2019-02-12T01:09:43.982Z,1.73
2019-02-12T01:12:12.849Z,2.10
2019-02-12T01:14:42.145Z,1.83
2019-02-12T01:17:11.175Z,2.00
2019-02-12T01:19:40.422Z,2.37
2019-02-12T01:22:09.436Z,1.83
2019-02-12T01:24:38.376Z,1.80
2019-02-12T01:27:07.282Z,1.57
2019-02-12T01:29:36.527Z,2.10
2019-02-12T01:32:05.554Z,1.70
2019-02-12T01:34:34.803Z,1.93
2019-02-12T01:37:03.802Z,1.47
2019-02-12T01:39:32.745Z,2.03
2019-02-12T01:42:01.665Z,2.03
2019-02-12T01:44:30.911Z,1.40
2019-02-12T01:46:59.894Z,1.90
2019-02-12T01:49:29.185Z,1.80
2019-02-12T01:51:58.191Z,1.70
2019-02-12T01:54:27.133Z,1.70
2019-02-12T01:56:56.383Z,1.90
2019-02-12T01:59:25.402Z,1.63
2019-02-12T02:01:54.317Z,2.07
2019-02-12T02:04:23.238Z,2.13
2019-02-12T02:06:52.479Z,1.63
2019-02-12T02:09:21.534Z,1.67
2019-02-12T02:11:50.756Z,1.60
2019-02-12T02:14:19.755Z,1.70
2019-02-12T02:16:48.690Z,2.07
2019-02-12T02:19:17.934Z,2.03
2019-02-12T02:21:46.945Z,1.60
2019-02-12T02:24:15.890Z,2.00
2019-02-12T02:26:45.129Z,2.20
2019-02-12T02:29:14.130Z,2.50
2019-02-12T02:31:43.082Z,1.80
2019-02-12T02:34:11.990Z,1.77
2019-02-12T02:36:40.906Z,2.87
2019-02-12T02:39:09.853Z,1.53
2019-02-12T02:41:38.767Z,2.30
2019-02-12T02:44:07.671Z,1.90
2019-02-12T02:46:36.634Z,2.40
2019-02-12T02:49:05.543Z,2.00
2019-02-12T02:51:34.458Z,2.00
2019-02-12T02:54:03.417Z,2.40
2019-02-12T02:56:32.335Z,1.97
2019-02-12T02:59:01.248Z,2.37
2019-02-12T03:01:30.195Z,1.83
2019-02-12T03:03:59.111Z,1.80
2019-02-12T03:06:28.359Z,1.77
2019-02-12T03:08:57.381Z,1.93
2019-02-12T03:11:26.647Z,1.73
2019-02-12T03:13:55.627Z,2.07
2019-02-12T03:16:24.895Z,2.10
2019-02-12T03:18:53.903Z,2.37
2019-02-12T03:21:22.818Z,2.53
2019-02-12T03:23:52.091Z,1.83
2019-02-12T03:26:21.091Z,2.03
2019-02-12T03:28:49.999Z,1.50
2019-02-12T03:31:19.286Z,1.73
2019-02-12T03:33:48.298Z,1.67
2019-02-12T03:36:17.206Z,1.70
2019-02-12T03:38:46.474Z,1.73
2019-02-12T03:41:15.476Z,2.10
2019-02-12T03:43:44.386Z,1.43
2019-02-12T03:46:13.333Z,2.30
2019-02-12T03:48:42.238Z,1.70
2019-02-12T03:51:11.150Z,2.00
2019-02-12T03:53:40.092Z,1.57
2019-02-12T03:56:09.007Z,1.83
2019-02-12T03:58:38.244Z,2.20
2019-02-12T04:01:07.294Z,2.37
2019-02-12T04:03:36.637Z,2.17
2019-02-12T04:06:05.656Z,2.13
2019-02-12T04:08:34.603Z,1.70
2019-02-12T04:11:03.506Z,1.50
2019-02-12T04:13:32.759Z,1.97
2019-02-12T04:16:01.795Z,2.20
2019-02-12T04:18:30.695Z,2.00
2019-02-12T04:20:59.944Z,2.00
2019-02-12T04:23:28.976Z,1.50
2019-02-12T04:25:57.894Z,2.00
2019-02-12T04:28:27.149Z,2.17
2019-02-12T04:30:56.189Z,1.50
2019-02-12T04:33:25.115Z,1.97
2019-02-12T04:35:54.369Z,2.03
2019-02-12T04:38:23.416Z,1.67
2019-02-12T04:40:52.369Z,1.67
2019-02-12T04:43:21.269Z,1.60
2019-02-12T04:45:50.534Z,1.87
2019-02-12T04:48:19.877Z,1.50
2019-02-12T04:50:48.881Z,1.53
2019-02-12T04:53:17.818Z,2.10
2019-02-12T04:55:47.074Z,1.53
2019-02-12T04:58:16.403Z,2.07
2019-02-12T05:00:45.459Z,2.70
2019-02-12T05:03:14.684Z,1.87
2019-02-12T05:05:44.015Z,1.50
2019-02-12T05:08:13.380Z,1.70
2019-02-12T05:10:48.702Z,1.57
2019-02-12T05:13:17.723Z,1.70
2019-02-12T05:15:46.657Z,1.87
2019-02-12T05:18:15.568Z,1.70
2019-02-12T05:20:44.474Z,2.30
2019-02-12T05:23:13.418Z,2.00
2019-02-12T05:25:42.328Z,1.60
2019-02-12T05:28:11.253Z,1.90
2019-02-12T05:30:40.198Z,1.90
2019-02-12T05:33:09.115Z,2.13
2019-02-12T05:35:38.365Z,2.20
2019-02-12T05:38:07.386Z,2.93
2019-02-12T05:40:36.643Z,1.77
2019-02-12T05:43:05.980Z,2.40
2019-02-12T05:45:35.360Z,2.23
2019-02-12T05:48:04.363Z,2.10
2019-02-12T05:50:33.286Z,1.80
2019-02-12T05:53:02.572Z,1.97
2019-02-12T05:55:31.592Z,1.97
2019-02-12T05:58:00.835Z,1.73
2019-02-12T06:00:31.494Z,2.73
2019-02-12T06:03:00.400Z,2.03
2019-02-12T06:05:29.574Z,2.20
2019-02-12T06:07:58.832Z,2.40
2019-02-12T06:10:27.830Z,2.37
2019-02-12T06:12:56.729Z,1.57
2019-02-12T06:15:25.657Z,2.47
2019-02-12T06:17:54.573Z,2.13
2019-02-12T06:20:23.479Z,2.10
2019-02-12T06:22:52.751Z,3.23
2019-02-12T06:25:21.762Z,3.67
2019-02-12T06:27:50.657Z,2.50
2019-02-12T06:30:19.610Z,2.60
2019-02-12T06:32:48.514Z,2.90
2019-02-12T06:35:17.426Z,3.27
2019-02-12T06:37:46.700Z,2.63
2019-02-12T06:40:15.705Z,2.50
2019-02-12T06:42:44.610Z,2.83
2019-02-12T06:45:13.790Z,2.40
2019-02-12T06:47:42.700Z,3.93
2019-02-12T06:50:14.692Z,3.57
2019-02-12T06:52:43.958Z,2.70
2019-02-12T06:55:13.273Z,2.40
2019-02-12T06:57:42.269Z,3.23
2019-02-12T07:00:11.979Z,2.63
2019-02-12T07:03:06.801Z,2.57
2019-02-12T07:05:35.822Z,2.50
2019-02-12T07:08:22.806Z,2.20
2019-02-12T07:10:55.138Z,2.70
2019-02-12T07:13:25.673Z,2.77
2019-02-12T07:15:54.850Z,2.70
2019-02-12T07:18:25.324Z,2.50
2019-02-12T07:20:55.761Z,3.13
2019-02-12T07:23:48.902Z,2.20
2019-02-12T07:26:22.153Z,2.20
2019-02-12T07:29:00.402Z,3.33
2019-02-12T07:32:04.155Z,3.97
2019-02-12T07:34:39.231Z,3.30
2019-02-12T07:37:09.765Z,2.90
2019-02-12T07:39:58.959Z,2.60
2019-02-12T07:42:49.685Z,3.20
2019-02-12T07:45:32.553Z,12.00
2019-02-12T07:48:18.193Z,4.17
2019-02-12T07:50:56.261Z,3.30
2019-02-12T07:53:31.301Z,3.33
2019-02-12T07:56:12.333Z,2.53
2019-02-12T07:58:48.957Z,3.70
2019-02-12T08:01:19.433Z,3.97
2019-02-12T08:04:00.014Z,7.03
2019-02-12T08:06:33.744Z,6.47
2019-02-12T08:09:18.007Z,3.57
2019-02-12T08:12:02.490Z,3.00
2019-02-12T08:14:33.071Z,2.93
2019-02-12T08:17:20.463Z,5.20
2019-02-12T08:20:07.722Z,2.77
2019-02-12T08:23:06.878Z,2.90
2019-02-12T08:26:14.978Z,3.33
2019-02-12T08:28:52.094Z,2.30
2019-02-12T08:31:22.519Z,3.20
2019-02-12T08:34:15.328Z,3.00
2019-02-12T08:36:53.393Z,3.00
2019-02-12T08:39:34.662Z,4.47
2019-02-12T08:42:28.274Z,5.70
2019-02-12T08:45:25.135Z,4.30
2019-02-12T08:48:12.506Z,3.00
2019-02-12T08:50:56.553Z,2.97
2019-02-12T08:53:37.530Z,2.93
2019-02-12T08:56:28.092Z,3.10
2019-02-12T08:59:24.004Z,3.63
2019-02-12T09:01:59.162Z,3.43
2019-02-12T09:04:46.630Z,2.83
2019-02-12T09:07:30.834Z,2.40
2019-02-12T09:10:12.231Z,5.13
2019-02-12T09:12:59.639Z,4.33
2019-02-12T09:15:47.159Z,12.43
2019-02-12T09:18:28.449Z,10.80
2019-02-12T09:21:12.974Z,28.90
2019-02-12T09:24:10.373Z,11.73
2019-02-12T09:26:43.882Z,4.80
2019-02-12T09:29:22.558Z,10.30
2019-02-12T09:32:10.249Z,6.77
2019-02-12T09:34:42.800Z,3.93
2019-02-12T09:37:39.604Z,5.63
2019-02-12T10:29:18.235Z,2.73
2019-02-12T10:31:51.893Z,2.47
2019-02-12T10:34:24.671Z,2.43
2019-02-12T10:37:09.433Z,2.03
2019-02-12T10:39:43.149Z,2.37
2019-02-12T10:45:06.064Z,2.63
2019-02-12T10:47:40.428Z,2.37
2019-02-12T10:50:15.608Z,2.43
2019-02-12T10:52:47.570Z,2.60
2019-02-12T11:39:39.658Z,2.30
2019-02-12T11:51:13.824Z,2.40
2019-02-12T12:05:08.287Z,2.63
2019-02-12T12:07:37.644Z,2.67
2019-02-12T12:10:09.434Z,2.67
2019-02-12T12:12:41.293Z,2.30
2019-02-12T12:15:17.026Z,2.60
2019-02-12T12:17:50.202Z,2.47
2019-02-12T12:20:19.965Z,2.67
2019-02-12T12:22:54.231Z,2.40
2019-02-12T12:25:23.557Z,2.13
2019-02-12T12:27:52.914Z,1.87
2019-02-12T12:30:22.254Z,2.00
2019-02-12T12:32:51.583Z,2.10
2019-02-12T12:35:20.930Z,2.80
2019-02-12T12:37:50.259Z,2.67
2019-02-12T12:40:19.586Z,3.13
2019-02-12T12:42:48.938Z,2.67
2019-02-12T12:45:37.598Z,2.30
2019-02-12T12:48:06.958Z,2.53
2019-02-12T12:50:36.296Z,2.30
2019-02-12T12:53:05.613Z,2.60
2019-02-12T12:55:34.969Z,2.13
2019-02-12T12:58:04.459Z,2.30
2019-02-12T13:00:33.867Z,2.33
2019-02-12T13:03:04.461Z,2.63
2019-02-12T13:05:33.868Z,2.30
2019-02-12T13:08:03.204Z,2.70
2019-02-12T13:10:32.649Z,2.90
2019-02-12T13:13:01.973Z,3.93
2019-02-12T13:15:31.305Z,4.03
2019-02-12T13:18:02.186Z,4.20
2019-02-12T13:20:31.665Z,3.00
2019-02-12T13:23:00.993Z,7.93
2019-02-12T13:25:30.355Z,6.63
2019-02-12T13:27:59.695Z,10.17
2019-02-12T13:30:29.024Z,3.47
2019-02-12T13:32:58.380Z,4.23
2019-02-12T13:35:27.705Z,6.87
2019-02-12T13:37:57.030Z,3.83
2019-02-12T13:40:26.641Z,2.30
2019-02-12T13:42:56.261Z,4.63
2019-02-12T13:45:25.597Z,2.90
2019-02-12T13:47:54.962Z,4.80
2019-02-12T13:50:24.290Z,3.93
2019-02-12T13:52:53.617Z,2.23
2019-02-12T13:55:22.974Z,3.27
2019-02-12T13:57:52.298Z,2.70
2019-02-12T14:00:21.624Z,4.07
2019-02-12T14:02:50.989Z,11.87
2019-02-12T14:05:23.221Z,5.27
2019-02-12T14:07:52.605Z,5.00
2019-02-12T14:10:22.006Z,2.90
2019-02-12T14:12:51.341Z,2.10
2019-02-12T14:15:20.672Z,2.43
2019-02-12T14:17:50.084Z,4.57
2019-02-12T14:20:19.406Z,1.83
2019-02-12T14:22:48.729Z,1.70
2019-02-12T14:25:25.223Z,1.70
2019-02-12T14:27:49.105Z,2.20
2019-02-12T14:30:20.273Z,2.63
2019-02-12T14:32:49.634Z,2.03
2019-02-12T14:35:18.966Z,1.70
2019-02-12T14:37:48.306Z,1.93
2019-02-12T14:40:17.649Z,2.40
2019-02-12T14:42:47.042Z,1.80
2019-02-12T14:45:17.709Z,1.70
2019-02-12T14:47:47.062Z,1.97
2019-02-12T14:50:18.826Z,1.73
2019-02-12T14:52:48.158Z,1.43
2019-02-12T14:55:17.516Z,1.77
2019-02-12T14:57:46.939Z,1.80
2019-02-12T15:00:17.712Z,1.87
2019-02-12T15:02:47.073Z,2.07
2019-02-12T15:05:16.477Z,2.40
2019-02-12T15:07:45.808Z,2.00
2019-02-12T15:10:15.899Z,1.83
2019-02-12T15:12:45.303Z,2.23
2019-02-12T15:15:14.629Z,2.00
2019-02-12T15:17:44.017Z,1.57
2019-02-12T15:20:14.006Z,2.30
2019-02-12T15:22:43.514Z,1.97
2019-02-12T15:25:32.213Z,1.93
2019-02-12T15:28:01.549Z,1.90
2019-02-12T15:30:30.949Z,2.03
2019-02-12T15:33:00.305Z,1.97
2019-02-12T15:35:29.651Z,1.80
2019-02-12T15:37:58.983Z,2.20
2019-02-12T15:40:28.338Z,2.27
2019-02-12T15:42:57.679Z,2.43
2019-02-12T15:45:26.990Z,2.43
2019-02-12T15:47:56.342Z,1.87
2019-02-12T15:50:25.662Z,2.20
2019-02-12T15:52:54.980Z,2.43
2019-02-12T15:55:24.325Z,2.17
2019-02-12T15:57:53.653Z,1.90
2019-02-12T16:00:22.984Z,2.40
2019-02-12T16:02:54.044Z,2.30
2019-02-12T16:05:23.458Z,2.57
2019-02-12T16:07:52.782Z,2.33
2019-02-12T16:10:22.130Z,1.77
2019-02-12T16:12:51.759Z,1.83
2019-02-12T16:15:22.312Z,1.50
2019-02-12T16:17:52.267Z,2.00
2019-02-12T16:20:21.593Z,1.93
2019-02-12T16:22:50.922Z,1.67
2019-02-12T16:25:20.297Z,1.73
2019-02-12T16:27:49.619Z,2.33
2019-02-12T16:30:20.586Z,2.77
2019-02-12T16:32:54.894Z,1.90
2019-02-12T16:35:24.216Z,2.40
2019-02-12T16:37:53.541Z,1.73
2019-02-12T16:40:23.374Z,1.80
2019-02-12T16:42:52.818Z,1.90
2019-02-12T16:45:34.213Z,1.90
2019-02-12T16:48:03.535Z,2.57
2019-02-12T16:50:32.862Z,1.73
2019-02-12T16:53:02.222Z,2.30
2019-02-12T16:55:31.554Z,2.20
2019-02-12T16:58:00.883Z,2.20
2019-02-12T17:00:49.582Z,2.07
2019-02-12T17:03:18.909Z,2.83
2019-02-12T17:05:48.301Z,2.00
2019-02-12T17:08:17.657Z,2.70
2019-02-12T17:10:46.983Z,2.17
2019-02-12T17:13:16.305Z,2.10
2019-02-12T17:15:45.658Z,2.23
2019-02-12T17:18:14.969Z,2.30
2019-02-12T17:20:44.529Z,1.90
2019-02-12T17:23:13.930Z,2.37
2019-02-12T17:25:43.267Z,2.43
2019-02-12T17:28:12.587Z,2.00
2019-02-12T17:30:41.970Z,2.00
2019-02-12T17:33:11.292Z,2.37
2019-02-12T17:35:40.621Z,2.17
2019-02-12T17:38:10.038Z,1.90
2019-02-12T17:40:39.362Z,2.47
2019-02-12T17:43:08.690Z,2.57
2019-02-12T17:45:38.050Z,2.33
2019-02-12T17:48:07.383Z,2.07
2019-02-12T17:50:36.714Z,2.13
2019-02-12T17:53:06.649Z,2.33
2019-02-12T17:55:35.984Z,5.70
2019-02-12T17:58:05.310Z,12.20
2019-02-12T18:00:38.971Z,8.27
2019-02-12T18:03:08.314Z,9.57
2019-02-12T18:05:37.645Z,7.30
2019-02-12T18:08:07.008Z,8.37
2019-02-12T18:10:36.343Z,4.73
2019-02-12T18:13:05.680Z,3.77
2019-02-12T18:15:35.043Z,2.67
2019-02-12T18:18:04.402Z,2.93
2019-02-12T18:20:33.809Z,2.80
2019-02-12T18:23:03.175Z,2.30
2019-02-12T18:25:32.518Z,3.17
2019-02-12T18:28:01.841Z,2.60
2019-02-12T18:30:31.218Z,2.80
2019-02-12T18:33:00.566Z,2.50
2019-02-12T18:35:29.888Z,3.00
2019-02-12T18:37:59.219Z,2.87
2019-02-12T18:40:28.617Z,2.53
2019-02-12T18:42:57.946Z,2.90
2019-02-12T18:45:27.306Z,3.30
2019-02-12T18:47:56.315Z,2.60
2019-02-12T18:50:25.562Z,3.00
2019-02-12T18:52:54.917Z,2.87
2019-02-12T18:55:23.923Z,2.97
2019-02-12T18:57:53.154Z,3.13
2019-02-12T19:00:22.658Z,3.00
2019-02-12T19:02:51.598Z,3.30
2019-02-12T19:05:21.062Z,3.10
2019-02-12T19:07:50.097Z,4.10
2019-02-12T19:10:19.501Z,3.87
2019-02-12T19:12:48.511Z,4.37
2019-02-12T19:15:20.093Z,4.50
2019-02-12T19:17:53.394Z,4.07
2019-02-12T19:20:22.379Z,6.30
2019-02-12T19:22:51.651Z,9.57
2019-02-12T19:25:20.658Z,8.57
2019-02-12T19:27:49.566Z,7.60
2019-02-12T19:30:18.531Z,9.73
2019-02-12T19:32:47.459Z,8.97
2019-02-12T19:35:16.697Z,7.93
2019-02-12T19:37:45.734Z,9.57
2019-02-12T19:40:14.991Z,8.80
2019-02-12T19:42:43.994Z,8.87
2019-02-12T19:45:17.220Z,8.33
2019-02-12T19:47:46.228Z,8.20
2019-02-12T19:50:15.138Z,9.00
2019-02-12T19:52:44.077Z,9.73
2019-02-12T19:55:13.318Z,7.30
2019-02-12T19:57:42.666Z,9.07
2019-02-12T20:00:14.059Z,10.50
2019-02-12T20:02:43.320Z,10.63
2019-02-12T20:05:12.851Z,8.97
2019-02-12T20:07:42.208Z,9.30
2019-02-12T20:10:12.782Z,11.20
2019-02-12T20:12:41.854Z,10.33
2019-02-12T20:15:14.933Z,12.13
2019-02-12T20:17:44.175Z,11.30
2019-02-12T20:20:13.321Z,10.53
2019-02-12T20:22:42.274Z,11.83
2019-02-12T20:25:11.276Z,11.10
2019-02-12T20:27:40.190Z,11.40
2019-02-12T20:30:15.627Z,12.03
2019-02-12T20:32:44.629Z,11.87
2019-02-12T20:35:15.426Z,13.00
2019-02-12T20:37:44.458Z,12.87
2019-02-12T20:40:13.653Z,13.40
2019-02-12T20:42:42.573Z,14.37
2019-02-12T20:45:13.071Z,14.27
2019-02-12T20:47:42.314Z,14.90
2019-02-12T20:50:14.722Z,14.60
2019-02-12T20:52:44.079Z,14.97
2019-02-12T20:55:13.424Z,14.63
2019-02-12T20:57:42.437Z,14.50
2019-02-12T21:00:22.363Z,16.07
2019-02-12T21:02:51.386Z,15.07
2019-02-12T21:05:20.481Z,15.23
2019-02-12T21:07:49.434Z,15.17
2019-02-12T21:10:18.946Z,14.17
2019-02-12T21:12:48.206Z,14.73
2019-02-12T21:15:18.366Z,14.53
2019-02-12T21:17:47.655Z,13.47
2019-02-12T21:20:17.007Z,13.70
2019-02-12T21:22:46.078Z,13.80
2019-02-12T21:25:15.019Z,13.07
2019-02-12T21:27:44.273Z,13.57
2019-02-12T21:30:17.457Z,13.70
2019-02-12T21:33:06.422Z,15.27
2019-02-12T21:35:35.803Z,15.40
2019-02-12T21:38:06.854Z,13.20
2019-02-12T21:40:36.015Z,13.13
2019-02-12T21:43:05.514Z,14.20
2019-02-12T21:45:34.629Z,14.50
2019-02-12T21:48:04.485Z,14.73
2019-02-12T21:50:33.583Z,14.33
2019-02-12T21:53:02.511Z,14.30
2019-02-12T21:55:31.499Z,14.40
2019-02-12T21:58:00.469Z,15.00
2019-02-12T22:00:29.694Z,14.67
2019-02-12T22:02:58.708Z,14.20
2019-02-12T22:05:27.654Z,13.30
2019-02-12T22:07:56.904Z,15.10
2019-02-12T22:10:26.874Z,13.73
2019-02-12T22:12:55.834Z,14.90
2019-02-12T22:15:25.093Z,14.20
2019-02-12T22:17:54.105Z,14.53
2019-02-12T22:20:23.329Z,13.90
2019-02-12T22:22:52.239Z,14.90
2019-02-12T22:25:21.158Z,14.67
2019-02-12T22:27:50.429Z,14.53
2019-02-12T22:30:21.697Z,15.07
2019-02-12T22:32:50.702Z,14.07
2019-02-12T22:35:19.654Z,16.03
2019-02-12T22:37:48.571Z,15.07
2019-02-12T22:40:18.464Z,14.97
2019-02-12T22:42:47.498Z,14.40
2019-02-12T22:45:17.962Z,15.43
2019-02-12T22:47:47.212Z,16.70
2019-02-12T22:50:16.250Z,15.10
2019-02-12T22:52:45.162Z,15.17
2019-02-12T22:55:14.419Z,15.90
2019-02-12T22:57:49.235Z,15.77
2019-02-12T23:00:19.389Z,16.23
2019-02-12T23:02:48.710Z,14.87
2019-02-12T23:05:17.753Z,16.43
2019-02-12T23:07:46.997Z,16.27
2019-02-12T23:10:16.005Z,16.70
2019-02-12T23:12:45.282Z,16.60
2019-02-12T23:15:14.301Z,16.73
2019-02-12T23:17:43.219Z,15.57
2019-02-12T23:20:12.498Z,15.93
2019-02-12T23:22:41.837Z,16.87
2019-02-12T23:25:11.275Z,17.10
2019-02-12T23:27:40.294Z,17.10
2019-02-12T23:30:10.394Z,16.40
2019-02-12T23:32:39.398Z,16.33
2019-02-12T23:35:08.690Z,17.13
2019-02-12T23:37:37.702Z,16.57
2019-02-12T23:40:08.293Z,18.20
2019-02-12T23:42:37.666Z,16.33
2019-02-12T23:45:08.542Z,17.20
2019-02-12T23:47:37.870Z,17.30
2019-02-12T23:50:07.585Z,16.80
2019-02-12T23:52:36.498Z,18.30
2019-02-12T23:55:07.059Z,17.02
2019-02-12T23:57:36.094Z,18.27
